sensor_id;sensor_type;location;lat;lon;timestamp;P1;durP1;ratioP1;P2;durP2;ratioP2
3487;SDS011;38546;48.170;11.724;2023-04-03T00:01:55;18.80;;;11.00;;
3487;SDS011;38546;48.170;11.724;2023-04-03T00:04:44;22.00;;;13.30;;
3487;SDS011;38546;48.170;11.724;2023-04-03T00:07:34;19.30;;;9.80;;
3487;SDS011;38546;48.170;11.724;2023-04-03T00:10:23;24.50;;;12.47;;
3487;SDS011;38546;48.170;11.724;2023-04-03T00:13:13;19.07;;;10.93;;
3487;SDS011;38546;48.170;11.724;2023-04-03T00:16:02;26.13;;;12.33;;
3487;SDS011;38546;48.170;11.724;2023-04-03T00:18:52;25.63;;;12.80;;
3487;SDS011;38546;48.170;11.724;2023-04-03T00:21:41;23.60;;;11.37;;
3487;SDS011;38546;48.170;11.724;2023-04-03T00:24:30;21.73;;;12.53;;
3487;SDS011;38546;48.170;11.724;2023-04-03T00:27:20;22.13;;;12.13;;
3487;SDS011;38546;48.170;11.724;2023-04-03T00:30:11;16.87;;;10.57;;
3487;SDS011;38546;48.170;11.724;2023-04-03T00:33:04;21.27;;;11.53;;
3487;SDS011;38546;48.170;11.724;2023-04-03T00:35:55;21.47;;;12.47;;
3487;SDS011;38546;48.170;11.724;2023-04-03T00:38:45;18.33;;;11.13;;
3487;SDS011;38546;48.170;11.724;2023-04-03T00:41:34;16.03;;;10.27;;
3487;SDS011;38546;48.170;11.724;2023-04-03T00:45:26;18.23;;;10.70;;
3487;SDS011;38546;48.170;11.724;2023-04-03T00:48:30;15.57;;;9.67;;
3487;SDS011;38546;48.170;11.724;2023-04-03T00:51:23;18.20;;;11.00;;
3487;SDS011;38546;48.170;11.724;2023-04-03T00:54:14;16.40;;;9.30;;
3487;SDS011;38546;48.170;11.724;2023-04-03T00:57:04;21.37;;;10.77;;
3487;SDS011;38546;48.170;11.724;2023-04-03T00:59:55;20.40;;;10.60;;
3487;SDS011;38546;48.170;11.724;2023-04-03T01:02:52;17.93;;;10.90;;
3487;SDS011;38546;48.170;11.724;2023-04-03T01:05:41;18.17;;;10.93;;
3487;SDS011;38546;48.170;11.724;2023-04-03T01:08:31;23.60;;;11.83;;
3487;SDS011;38546;48.170;11.724;2023-04-03T01:11:20;16.87;;;10.37;;
3487;SDS011;38546;48.170;11.724;2023-04-03T01:14:09;17.30;;;10.47;;
3487;SDS011;38546;48.170;11.724;2023-04-03T01:16:58;16.53;;;11.50;;
3487;SDS011;38546;48.170;11.724;2023-04-03T01:19:47;18.37;;;11.23;;
3487;SDS011;38546;48.170;11.724;2023-04-03T01:23:16;19.03;;;10.80;;
3487;SDS011;38546;48.170;11.724;2023-04-03T01:26:16;17.90;;;10.17;;
3487;SDS011;38546;48.170;11.724;2023-04-03T01:29:06;22.20;;;11.43;;
3487;SDS011;38546;48.170;11.724;2023-04-03T01:31:56;19.60;;;10.70;;
3487;SDS011;38546;48.170;11.724;2023-04-03T01:34:48;15.67;;;9.97;;
3487;SDS011;38546;48.170;11.724;2023-04-03T01:37:37;13.63;;;9.77;;
3487;SDS011;38546;48.170;11.724;2023-04-03T01:40:26;15.20;;;9.83;;
3487;SDS011;38546;48.170;11.724;2023-04-03T01:43:15;18.53;;;9.33;;
3487;SDS011;38546;48.170;11.724;2023-04-03T01:46:05;22.77;;;11.77;;
3487;SDS011;38546;48.170;11.724;2023-04-03T01:48:54;13.87;;;8.73;;
3487;SDS011;38546;48.170;11.724;2023-04-03T01:51:44;15.40;;;9.90;;
3487;SDS011;38546;48.170;11.724;2023-04-03T01:54:33;12.53;;;7.93;;
3487;SDS011;38546;48.170;11.724;2023-04-03T01:57:23;15.97;;;9.83;;
3487;SDS011;38546;48.170;11.724;2023-04-03T02:00:14;17.93;;;10.27;;
3487;SDS011;38546;48.170;11.724;2023-04-03T02:03:04;15.47;;;10.27;;
3487;SDS011;38546;48.170;11.724;2023-04-03T02:05:53;19.30;;;10.27;;
3487;SDS011;38546;48.170;11.724;2023-04-03T02:08:42;16.43;;;9.70;;
3487;SDS011;38546;48.170;11.724;2023-04-03T02:11:32;14.57;;;9.73;;
3487;SDS011;38546;48.170;11.724;2023-04-03T02:14:22;13.60;;;7.87;;
3487;SDS011;38546;48.170;11.724;2023-04-03T02:17:12;12.03;;;8.33;;
3487;SDS011;38546;48.170;11.724;2023-04-03T02:20:01;11.93;;;8.20;;
3487;SDS011;38546;48.170;11.724;2023-04-03T02:22:52;13.80;;;9.10;;
3487;SDS011;38546;48.170;11.724;2023-04-03T02:25:41;13.87;;;8.93;;
3487;SDS011;38546;48.170;11.724;2023-04-03T02:28:30;15.93;;;9.73;;
3487;SDS011;38546;48.170;11.724;2023-04-03T02:31:21;14.33;;;8.33;;
3487;SDS011;38546;48.170;11.724;2023-04-03T02:34:11;13.40;;;8.07;;
3487;SDS011;38546;48.170;11.724;2023-04-03T02:37:00;11.67;;;8.00;;
3487;SDS011;38546;48.170;11.724;2023-04-03T02:39:49;11.50;;;7.33;;
3487;SDS011;38546;48.170;11.724;2023-04-03T02:42:38;12.03;;;8.07;;
3487;SDS011;38546;48.170;11.724;2023-04-03T02:45:28;12.57;;;8.20;;
3487;SDS011;38546;48.170;11.724;2023-04-03T02:48:17;11.73;;;8.50;;
3487;SDS011;38546;48.170;11.724;2023-04-03T02:51:06;13.00;;;7.80;;
3487;SDS011;38546;48.170;11.724;2023-04-03T02:53:55;11.97;;;7.87;;
3487;SDS011;38546;48.170;11.724;2023-04-03T02:56:44;13.40;;;8.87;;
3487;SDS011;38546;48.170;11.724;2023-04-03T02:59:34;14.87;;;8.30;;
3487;SDS011;38546;48.170;11.724;2023-04-03T03:02:24;7.90;;;5.80;;
3487;SDS011;38546;48.170;11.724;2023-04-03T03:05:14;9.87;;;6.83;;
3487;SDS011;38546;48.170;11.724;2023-04-03T03:08:04;9.23;;;7.20;;
3487;SDS011;38546;48.170;11.724;2023-04-03T03:10:53;9.80;;;8.03;;
3487;SDS011;38546;48.170;11.724;2023-04-03T03:13:43;9.10;;;7.10;;
3487;SDS011;38546;48.170;11.724;2023-04-03T03:16:34;8.70;;;6.23;;
3487;SDS011;38546;48.170;11.724;2023-04-03T03:19:23;9.17;;;6.90;;
3487;SDS011;38546;48.170;11.724;2023-04-03T03:22:13;9.10;;;6.70;;
3487;SDS011;38546;48.170;11.724;2023-04-03T03:25:02;8.93;;;6.70;;
3487;SDS011;38546;48.170;11.724;2023-04-03T03:27:53;7.77;;;5.37;;
3487;SDS011;38546;48.170;11.724;2023-04-03T03:30:42;8.40;;;6.67;;
3487;SDS011;38546;48.170;11.724;2023-04-03T03:33:31;10.03;;;7.00;;
3487;SDS011;38546;48.170;11.724;2023-04-03T03:36:21;7.30;;;6.40;;
3487;SDS011;38546;48.170;11.724;2023-04-03T03:39:10;12.77;;;7.00;;
3487;SDS011;38546;48.170;11.724;2023-04-03T03:42:00;8.63;;;5.97;;
3487;SDS011;38546;48.170;11.724;2023-04-03T03:44:49;7.07;;;6.30;;
3487;SDS011;38546;48.170;11.724;2023-04-03T03:47:38;9.10;;;5.93;;
3487;SDS011;38546;48.170;11.724;2023-04-03T03:50:28;9.27;;;6.43;;
3487;SDS011;38546;48.170;11.724;2023-04-03T03:53:18;10.60;;;7.40;;
3487;SDS011;38546;48.170;11.724;2023-04-03T03:56:08;9.53;;;6.23;;
3487;SDS011;38546;48.170;11.724;2023-04-03T03:58:57;8.33;;;6.43;;
3487;SDS011;38546;48.170;11.724;2023-04-03T04:01:46;8.27;;;6.70;;
3487;SDS011;38546;48.170;11.724;2023-04-03T04:04:36;6.97;;;5.33;;
3487;SDS011;38546;48.170;11.724;2023-04-03T04:07:25;9.93;;;6.87;;
3487;SDS011;38546;48.170;11.724;2023-04-03T04:10:16;13.60;;;6.17;;
3487;SDS011;38546;48.170;11.724;2023-04-03T04:13:06;8.90;;;6.33;;
3487;SDS011;38546;48.170;11.724;2023-04-03T04:15:55;9.93;;;7.10;;
3487;SDS011;38546;48.170;11.724;2023-04-03T04:18:44;7.93;;;6.47;;
3487;SDS011;38546;48.170;11.724;2023-04-03T04:21:33;11.53;;;6.70;;
3487;SDS011;38546;48.170;11.724;2023-04-03T04:24:23;8.53;;;6.40;;
3487;SDS011;38546;48.170;11.724;2023-04-03T04:27:13;7.70;;;6.13;;
3487;SDS011;38546;48.170;11.724;2023-04-03T04:30:02;9.83;;;6.20;;
3487;SDS011;38546;48.170;11.724;2023-04-03T04:32:53;7.93;;;5.50;;
3487;SDS011;38546;48.170;11.724;2023-04-03T04:35:42;7.40;;;5.50;;
3487;SDS011;38546;48.170;11.724;2023-04-03T04:38:32;9.90;;;6.17;;
3487;SDS011;38546;48.170;11.724;2023-04-03T04:41:21;7.97;;;5.57;;
3487;SDS011;38546;48.170;11.724;2023-04-03T04:44:11;8.93;;;5.50;;
3487;SDS011;38546;48.170;11.724;2023-04-03T04:47:00;7.23;;;5.87;;
3487;SDS011;38546;48.170;11.724;2023-04-03T04:49:49;10.13;;;6.77;;
3487;SDS011;38546;48.170;11.724;2023-04-03T04:52:39;7.70;;;6.40;;
3487;SDS011;38546;48.170;11.724;2023-04-03T04:55:30;7.03;;;6.20;;
3487;SDS011;38546;48.170;11.724;2023-04-03T04:58:19;10.23;;;6.87;;
3487;SDS011;38546;48.170;11.724;2023-04-03T05:01:09;9.60;;;6.57;;
3487;SDS011;38546;48.170;11.724;2023-04-03T05:03:59;8.93;;;6.30;;
3487;SDS011;38546;48.170;11.724;2023-04-03T05:06:49;6.70;;;6.10;;
3487;SDS011;38546;48.170;11.724;2023-04-03T05:09:38;9.87;;;6.27;;
3487;SDS011;38546;48.170;11.724;2023-04-03T05:12:30;10.97;;;6.60;;
3487;SDS011;38546;48.170;11.724;2023-04-03T05:15:19;9.37;;;6.60;;
3487;SDS011;38546;48.170;11.724;2023-04-03T05:18:08;10.83;;;6.70;;
3487;SDS011;38546;48.170;11.724;2023-04-03T05:20:58;8.27;;;5.33;;
3487;SDS011;38546;48.170;11.724;2023-04-03T05:23:47;10.00;;;6.23;;
3487;SDS011;38546;48.170;11.724;2023-04-03T05:26:36;8.90;;;6.20;;
3487;SDS011;38546;48.170;11.724;2023-04-03T05:29:25;10.13;;;7.70;;
3487;SDS011;38546;48.170;11.724;2023-04-03T05:32:14;14.67;;;6.80;;
3487;SDS011;38546;48.170;11.724;2023-04-03T05:35:05;12.67;;;6.60;;
3487;SDS011;38546;48.170;11.724;2023-04-03T05:37:55;7.43;;;5.40;;
3487;SDS011;38546;48.170;11.724;2023-04-03T05:40:44;8.30;;;6.00;;
3487;SDS011;38546;48.170;11.724;2023-04-03T05:43:33;9.87;;;6.57;;
3487;SDS011;38546;48.170;11.724;2023-04-03T05:46:26;8.27;;;5.97;;
3487;SDS011;38546;48.170;11.724;2023-04-03T05:49:15;7.40;;;5.60;;
3487;SDS011;38546;48.170;11.724;2023-04-03T05:52:05;10.03;;;6.67;;
3487;SDS011;38546;48.170;11.724;2023-04-03T05:54:55;7.17;;;6.07;;
3487;SDS011;38546;48.170;11.724;2023-04-03T05:57:45;6.97;;;5.60;;
3487;SDS011;38546;48.170;11.724;2023-04-03T06:00:34;8.13;;;6.13;;
3487;SDS011;38546;48.170;11.724;2023-04-03T06:03:23;9.30;;;6.30;;
3487;SDS011;38546;48.170;11.724;2023-04-03T06:06:13;8.33;;;6.60;;
3487;SDS011;38546;48.170;11.724;2023-04-03T06:09:02;6.60;;;5.40;;
3487;SDS011;38546;48.170;11.724;2023-04-03T06:11:51;9.00;;;5.10;;
3487;SDS011;38546;48.170;11.724;2023-04-03T06:14:41;7.57;;;5.97;;
3487;SDS011;38546;48.170;11.724;2023-04-03T06:17:30;6.90;;;5.40;;
3487;SDS011;38546;48.170;11.724;2023-04-03T06:20:19;7.90;;;6.70;;
3487;SDS011;38546;48.170;11.724;2023-04-03T06:23:09;8.60;;;6.43;;
3487;SDS011;38546;48.170;11.724;2023-04-03T06:25:58;9.93;;;6.43;;
3487;SDS011;38546;48.170;11.724;2023-04-03T06:28:47;6.57;;;5.97;;
3487;SDS011;38546;48.170;11.724;2023-04-03T06:31:37;7.57;;;5.80;;
3487;SDS011;38546;48.170;11.724;2023-04-03T06:34:26;7.17;;;6.17;;
3487;SDS011;38546;48.170;11.724;2023-04-03T06:37:16;9.20;;;6.97;;
3487;SDS011;38546;48.170;11.724;2023-04-03T06:40:15;9.17;;;6.80;;
3487;SDS011;38546;48.170;11.724;2023-04-03T06:43:10;10.10;;;6.27;;
3487;SDS011;38546;48.170;11.724;2023-04-03T06:45:59;10.17;;;6.70;;
3487;SDS011;38546;48.170;11.724;2023-04-03T06:48:48;9.10;;;6.20;;
3487;SDS011;38546;48.170;11.724;2023-04-03T06:51:38;9.50;;;6.17;;
3487;SDS011;38546;48.170;11.724;2023-04-03T06:54:27;7.90;;;5.90;;
3487;SDS011;38546;48.170;11.724;2023-04-03T06:57:16;9.00;;;6.73;;
3487;SDS011;38546;48.170;11.724;2023-04-03T07:00:05;9.93;;;5.80;;
3487;SDS011;38546;48.170;11.724;2023-04-03T07:02:56;7.57;;;6.40;;
3487;SDS011;38546;48.170;11.724;2023-04-03T07:05:45;7.47;;;6.20;;
3487;SDS011;38546;48.170;11.724;2023-04-03T07:08:35;9.73;;;6.83;;
3487;SDS011;38546;48.170;11.724;2023-04-03T07:11:23;8.50;;;6.13;;
3487;SDS011;38546;48.170;11.724;2023-04-03T07:14:13;10.30;;;6.73;;
3487;SDS011;38546;48.170;11.724;2023-04-03T07:17:02;9.37;;;6.60;;
3487;SDS011;38546;48.170;11.724;2023-04-03T07:19:51;11.10;;;6.80;;
3487;SDS011;38546;48.170;11.724;2023-04-03T07:22:40;9.03;;;6.63;;
3487;SDS011;38546;48.170;11.724;2023-04-03T07:25:29;9.57;;;6.20;;
3487;SDS011;38546;48.170;11.724;2023-04-03T07:28:18;8.60;;;6.63;;
3487;SDS011;38546;48.170;11.724;2023-04-03T07:31:11;10.73;;;7.20;;
3487;SDS011;38546;48.170;11.724;2023-04-03T07:34:02;9.90;;;6.77;;
3487;SDS011;38546;48.170;11.724;2023-04-03T07:36:51;8.07;;;6.10;;
3487;SDS011;38546;48.170;11.724;2023-04-03T07:39:43;11.70;;;7.50;;
3487;SDS011;38546;48.170;11.724;2023-04-03T07:42:33;10.10;;;7.60;;
3487;SDS011;38546;48.170;11.724;2023-04-03T07:45:23;10.40;;;7.30;;
3487;SDS011;38546;48.170;11.724;2023-04-03T07:48:13;10.20;;;7.40;;
3487;SDS011;38546;48.170;11.724;2023-04-03T07:51:02;12.17;;;8.20;;
3487;SDS011;38546;48.170;11.724;2023-04-03T07:53:53;12.77;;;7.40;;
3487;SDS011;38546;48.170;11.724;2023-04-03T07:56:42;12.00;;;8.47;;
3487;SDS011;38546;48.170;11.724;2023-04-03T07:59:32;13.20;;;7.50;;
3487;SDS011;38546;48.170;11.724;2023-04-03T08:02:21;11.97;;;8.43;;
3487;SDS011;38546;48.170;11.724;2023-04-03T08:05:10;13.07;;;7.20;;
3487;SDS011;38546;48.170;11.724;2023-04-03T08:08:00;11.80;;;7.73;;
3487;SDS011;38546;48.170;11.724;2023-04-03T08:10:53;10.77;;;7.27;;
3487;SDS011;38546;48.170;11.724;2023-04-03T08:13:43;14.00;;;9.13;;
3487;SDS011;38546;48.170;11.724;2023-04-03T08:16:33;13.17;;;7.90;;
3487;SDS011;38546;48.170;11.724;2023-04-03T08:19:22;11.47;;;7.97;;
3487;SDS011;38546;48.170;11.724;2023-04-03T08:22:11;16.60;;;8.80;;
3487;SDS011;38546;48.170;11.724;2023-04-03T08:25:00;12.13;;;7.60;;
3487;SDS011;38546;48.170;11.724;2023-04-03T08:27:50;13.37;;;7.77;;
3487;SDS011;38546;48.170;11.724;2023-04-03T08:30:40;15.40;;;8.07;;
3487;SDS011;38546;48.170;11.724;2023-04-03T08:33:31;12.93;;;8.13;;
3487;SDS011;38546;48.170;11.724;2023-04-03T08:36:23;10.80;;;8.30;;
3487;SDS011;38546;48.170;11.724;2023-04-03T08:39:15;12.23;;;7.73;;
3487;SDS011;38546;48.170;11.724;2023-04-03T08:42:05;12.57;;;6.90;;
3487;SDS011;38546;48.170;11.724;2023-04-03T08:45:28;11.23;;;7.60;;
3487;SDS011;38546;48.170;11.724;2023-04-03T08:48:44;10.73;;;7.37;;
3487;SDS011;38546;48.170;11.724;2023-04-03T08:51:34;13.33;;;8.23;;
3487;SDS011;38546;48.170;11.724;2023-04-03T08:54:27;8.23;;;7.43;;
3487;SDS011;38546;48.170;11.724;2023-04-03T08:57:28;9.00;;;6.40;;
3487;SDS011;38546;48.170;11.724;2023-04-03T09:00:29;10.87;;;7.73;;
3487;SDS011;38546;48.170;11.724;2023-04-03T09:03:36;14.07;;;7.07;;
3487;SDS011;38546;48.170;11.724;2023-04-03T09:06:29;8.47;;;7.67;;
3487;SDS011;38546;48.170;11.724;2023-04-03T09:09:37;11.00;;;7.40;;
3487;SDS011;38546;48.170;11.724;2023-04-03T09:12:37;10.93;;;7.33;;
3487;SDS011;38546;48.170;11.724;2023-04-03T09:15:34;10.03;;;7.60;;
3487;SDS011;38546;48.170;11.724;2023-04-03T09:18:26;8.67;;;7.60;;
3487;SDS011;38546;48.170;11.724;2023-04-03T09:21:25;8.70;;;6.70;;
3487;SDS011;38546;48.170;11.724;2023-04-03T09:24:25;9.20;;;7.47;;
3487;SDS011;38546;48.170;11.724;2023-04-03T09:27:15;7.73;;;6.30;;
3487;SDS011;38546;48.170;11.724;2023-04-03T09:30:04;9.87;;;6.47;;
3487;SDS011;38546;48.170;11.724;2023-04-03T09:32:57;13.67;;;6.50;;
3487;SDS011;38546;48.170;11.724;2023-04-03T09:35:46;8.43;;;6.80;;
3487;SDS011;38546;48.170;11.724;2023-04-03T09:38:37;14.40;;;7.80;;
3487;SDS011;38546;48.170;11.724;2023-04-03T09:41:26;8.97;;;7.17;;
3487;SDS011;38546;48.170;11.724;2023-04-03T09:44:20;7.60;;;6.90;;
3487;SDS011;38546;48.170;11.724;2023-04-03T09:47:26;7.23;;;6.53;;
3487;SDS011;38546;48.170;11.724;2023-04-03T09:50:20;12.43;;;7.40;;
3487;SDS011;38546;48.170;11.724;2023-04-03T09:53:27;9.77;;;7.47;;
3487;SDS011;38546;48.170;11.724;2023-04-03T09:56:35;14.13;;;7.53;;
3487;SDS011;38546;48.170;11.724;2023-04-03T09:59:25;8.30;;;6.40;;
3487;SDS011;38546;48.170;11.724;2023-04-03T10:02:35;6.67;;;6.03;;
3487;SDS011;38546;48.170;11.724;2023-04-03T10:05:34;9.10;;;6.47;;
3487;SDS011;38546;48.170;11.724;2023-04-03T10:08:28;11.03;;;7.57;;
3487;SDS011;38546;48.170;11.724;2023-04-03T10:11:20;8.13;;;7.33;;
3487;SDS011;38546;48.170;11.724;2023-04-03T10:14:16;12.00;;;7.40;;
3487;SDS011;38546;48.170;11.724;2023-04-03T10:17:14;8.33;;;7.33;;
3487;SDS011;38546;48.170;11.724;2023-04-03T10:20:51;8.20;;;6.00;;
3487;SDS011;38546;48.170;11.724;2023-04-03T10:23:50;11.30;;;6.87;;
3487;SDS011;38546;48.170;11.724;2023-04-03T10:27:09;7.03;;;5.87;;
3487;SDS011;38546;48.170;11.724;2023-04-03T10:31:32;6.30;;;5.43;;
3487;SDS011;38546;48.170;11.724;2023-04-03T10:34:58;7.97;;;6.23;;
3487;SDS011;38546;48.170;11.724;2023-04-03T10:38:14;6.73;;;6.00;;
3487;SDS011;38546;48.170;11.724;2023-04-03T10:51:07;7.27;;;5.90;;
3487;SDS011;38546;48.170;11.724;2023-04-03T10:57:45;11.00;;;6.30;;
3487;SDS011;38546;48.170;11.724;2023-04-03T11:00:40;16.23;;;6.10;;
3487;SDS011;38546;48.170;11.724;2023-04-03T11:03:42;5.73;;;5.13;;
3487;SDS011;38546;48.170;11.724;2023-04-03T11:06:44;5.83;;;5.23;;
3487;SDS011;38546;48.170;11.724;2023-04-03T11:09:43;5.77;;;4.60;;
3487;SDS011;38546;48.170;11.724;2023-04-03T11:12:47;5.30;;;4.60;;
3487;SDS011;38546;48.170;11.724;2023-04-03T11:15:45;4.90;;;4.40;;
3487;SDS011;38546;48.170;11.724;2023-04-03T11:18:49;6.63;;;4.30;;
3487;SDS011;38546;48.170;11.724;2023-04-03T11:31:32;5.13;;;3.30;;
3487;SDS011;38546;48.170;11.724;2023-04-03T11:36:19;4.10;;;3.60;;
3487;SDS011;38546;48.170;11.724;2023-04-03T11:39:22;4.03;;;3.20;;
3487;SDS011;38546;48.170;11.724;2023-04-03T11:42:22;3.50;;;3.07;;
3487;SDS011;38546;48.170;11.724;2023-04-03T11:48:58;3.67;;;2.97;;
3487;SDS011;38546;48.170;11.724;2023-04-03T11:51:47;3.53;;;3.17;;
3487;SDS011;38546;48.170;11.724;2023-04-03T11:54:44;3.43;;;3.23;;
3487;SDS011;38546;48.170;11.724;2023-04-03T11:57:43;5.60;;;3.43;;
3487;SDS011;38546;48.170;11.724;2023-04-03T12:00:49;3.60;;;3.20;;
3487;SDS011;38546;48.170;11.724;2023-04-03T12:07:01;3.67;;;3.07;;
3487;SDS011;38546;48.170;11.724;2023-04-03T12:10:13;3.50;;;3.10;;
3487;SDS011;38546;48.170;11.724;2023-04-03T12:13:12;3.13;;;2.93;;
3487;SDS011;38546;48.170;11.724;2023-04-03T12:16:05;3.63;;;3.43;;
3487;SDS011;38546;48.170;11.724;2023-04-03T12:23:07;3.50;;;3.20;;
3487;SDS011;38546;48.170;11.724;2023-04-03T12:26:22;2.47;;;2.37;;
3487;SDS011;38546;48.170;11.724;2023-04-03T12:29:21;2.50;;;2.40;;
3487;SDS011;38546;48.170;11.724;2023-04-03T12:33:50;11.73;;;3.00;;
3487;SDS011;38546;48.170;11.724;2023-04-03T12:37:01;2.77;;;2.53;;
3487;SDS011;38546;48.170;11.724;2023-04-03T12:43:55;2.63;;;2.43;;
3487;SDS011;38546;48.170;11.724;2023-04-03T12:48:14;4.77;;;2.90;;
3487;SDS011;38546;48.170;11.724;2023-04-03T12:51:06;4.50;;;2.30;;
3487;SDS011;38546;48.170;11.724;2023-04-03T12:54:03;3.63;;;2.80;;
3487;SDS011;38546;48.170;11.724;2023-04-03T12:57:24;3.53;;;3.10;;
3487;SDS011;38546;48.170;11.724;2023-04-03T13:00:25;3.93;;;3.13;;
3487;SDS011;38546;48.170;11.724;2023-04-03T13:03:24;3.30;;;2.90;;
3487;SDS011;38546;48.170;11.724;2023-04-03T13:06:25;2.73;;;2.47;;
3487;SDS011;38546;48.170;11.724;2023-04-03T13:09:27;2.77;;;2.57;;
3487;SDS011;38546;48.170;11.724;2023-04-03T13:12:18;2.60;;;2.40;;
3487;SDS011;38546;48.170;11.724;2023-04-03T13:15:13;3.50;;;2.77;;
3487;SDS011;38546;48.170;11.724;2023-04-03T13:18:52;2.80;;;2.70;;
3487;SDS011;38546;48.170;11.724;2023-04-03T13:21:42;4.77;;;2.60;;
3487;SDS011;38546;48.170;11.724;2023-04-03T13:24:33;6.13;;;2.63;;
3487;SDS011;38546;48.170;11.724;2023-04-03T13:27:26;3.50;;;2.50;;
3487;SDS011;38546;48.170;11.724;2023-04-03T13:30:37;2.80;;;2.60;;
3487;SDS011;38546;48.170;11.724;2023-04-03T13:33:30;2.87;;;2.67;;
3487;SDS011;38546;48.170;11.724;2023-04-03T13:36:28;2.20;;;2.07;;
3487;SDS011;38546;48.170;11.724;2023-04-03T13:39:23;5.20;;;2.63;;
3487;SDS011;38546;48.170;11.724;2023-04-03T13:42:21;3.77;;;2.30;;
3487;SDS011;38546;48.170;11.724;2023-04-03T13:45:22;8.17;;;2.10;;
3487;SDS011;38546;48.170;11.724;2023-04-03T13:48:18;4.10;;;2.60;;
3487;SDS011;38546;48.170;11.724;2023-04-03T13:54:21;3.70;;;2.43;;
3487;SDS011;38546;48.170;11.724;2023-04-03T13:57:17;3.10;;;2.03;;
3487;SDS011;38546;48.170;11.724;2023-04-03T14:03:44;3.00;;;2.23;;
3487;SDS011;38546;48.170;11.724;2023-04-03T14:06:44;2.30;;;2.20;;
3487;SDS011;38546;48.170;11.724;2023-04-03T14:09:34;2.60;;;2.37;;
3487;SDS011;38546;48.170;11.724;2023-04-03T14:12:26;2.77;;;2.57;;
3487;SDS011;38546;48.170;11.724;2023-04-03T14:15:23;2.20;;;2.00;;
3487;SDS011;38546;48.170;11.724;2023-04-03T14:18:18;4.80;;;2.57;;
3487;SDS011;38546;48.170;11.724;2023-04-03T14:21:10;3.30;;;2.00;;
3487;SDS011;38546;48.170;11.724;2023-04-03T14:24:01;2.27;;;2.00;;
3487;SDS011;38546;48.170;11.724;2023-04-03T14:26:51;2.00;;;2.00;;
3487;SDS011;38546;48.170;11.724;2023-04-03T14:29:43;2.50;;;2.30;;
3487;SDS011;38546;48.170;11.724;2023-04-03T14:32:33;2.37;;;2.27;;
3487;SDS011;38546;48.170;11.724;2023-04-03T14:35:23;14.80;;;2.87;;
3487;SDS011;38546;48.170;11.724;2023-04-03T14:38:24;7.60;;;2.23;;
3487;SDS011;38546;48.170;11.724;2023-04-03T14:41:18;4.20;;;2.33;;
3487;SDS011;38546;48.170;11.724;2023-04-03T14:44:10;2.00;;;1.90;;
3487;SDS011;38546;48.170;11.724;2023-04-03T14:46:59;2.30;;;2.20;;
3487;SDS011;38546;48.170;11.724;2023-04-03T14:49:48;4.30;;;2.47;;
3487;SDS011;38546;48.170;11.724;2023-04-03T14:52:38;3.80;;;2.07;;
3487;SDS011;38546;48.170;11.724;2023-04-03T14:55:28;2.10;;;2.00;;
3487;SDS011;38546;48.170;11.724;2023-04-03T14:58:18;1.90;;;1.80;;
3487;SDS011;38546;48.170;11.724;2023-04-03T15:01:10;3.40;;;2.47;;
3487;SDS011;38546;48.170;11.724;2023-04-03T15:04:00;2.17;;;2.03;;
3487;SDS011;38546;48.170;11.724;2023-04-03T15:06:49;2.40;;;2.30;;
3487;SDS011;38546;48.170;11.724;2023-04-03T15:09:39;2.40;;;2.20;;
3487;SDS011;38546;48.170;11.724;2023-04-03T15:12:28;2.33;;;2.07;;
3487;SDS011;38546;48.170;11.724;2023-04-03T15:15:18;2.73;;;2.30;;
3487;SDS011;38546;48.170;11.724;2023-04-03T15:18:10;2.20;;;2.10;;
3487;SDS011;38546;48.170;11.724;2023-04-03T15:21:06;2.37;;;2.27;;
3487;SDS011;38546;48.170;11.724;2023-04-03T15:23:55;2.20;;;2.10;;
3487;SDS011;38546;48.170;11.724;2023-04-03T15:26:44;2.17;;;1.87;;
3487;SDS011;38546;48.170;11.724;2023-04-03T15:29:33;2.57;;;2.17;;
3487;SDS011;38546;48.170;11.724;2023-04-03T15:32:22;3.80;;;2.30;;
3487;SDS011;38546;48.170;11.724;2023-04-03T15:35:11;1.77;;;1.70;;
3487;SDS011;38546;48.170;11.724;2023-04-03T15:38:00;2.83;;;2.03;;
3487;SDS011;38546;48.170;11.724;2023-04-03T15:40:49;2.33;;;2.20;;
3487;SDS011;38546;48.170;11.724;2023-04-03T15:43:38;2.57;;;1.90;;
3487;SDS011;38546;48.170;11.724;2023-04-03T15:46:27;3.80;;;2.33;;
3487;SDS011;38546;48.170;11.724;2023-04-03T15:49:17;4.63;;;2.60;;
3487;SDS011;38546;48.170;11.724;2023-04-03T15:52:08;2.30;;;2.20;;
3487;SDS011;38546;48.170;11.724;2023-04-03T15:54:57;3.87;;;2.37;;
3487;SDS011;38546;48.170;11.724;2023-04-03T15:57:46;2.60;;;2.40;;
3487;SDS011;38546;48.170;11.724;2023-04-03T16:00:35;1.80;;;1.70;;
3487;SDS011;38546;48.170;11.724;2023-04-03T16:03:25;2.23;;;2.13;;
3487;SDS011;38546;48.170;11.724;2023-04-03T16:06:18;2.07;;;1.97;;
3487;SDS011;38546;48.170;11.724;2023-04-03T16:09:07;3.10;;;2.50;;
3487;SDS011;38546;48.170;11.724;2023-04-03T16:11:58;2.00;;;1.90;;
3487;SDS011;38546;48.170;11.724;2023-04-03T16:14:47;1.83;;;1.73;;
3487;SDS011;38546;48.170;11.724;2023-04-03T16:17:36;1.90;;;1.80;;
3487;SDS011;38546;48.170;11.724;2023-04-03T16:20:27;2.60;;;2.40;;
3487;SDS011;38546;48.170;11.724;2023-04-03T16:23:16;2.27;;;2.17;;
3487;SDS011;38546;48.170;11.724;2023-04-03T16:26:06;6.33;;;2.13;;
3487;SDS011;38546;48.170;11.724;2023-04-03T16:28:55;2.40;;;2.03;;
3487;SDS011;38546;48.170;11.724;2023-04-03T16:31:44;5.50;;;2.73;;
3487;SDS011;38546;48.170;11.724;2023-04-03T16:34:33;2.80;;;2.10;;
3487;SDS011;38546;48.170;11.724;2023-04-03T16:37:23;2.27;;;2.17;;
3487;SDS011;38546;48.170;11.724;2023-04-03T16:40:12;2.47;;;2.23;;
3487;SDS011;38546;48.170;11.724;2023-04-03T16:43:02;2.57;;;2.40;;
3487;SDS011;38546;48.170;11.724;2023-04-03T16:45:51;2.27;;;2.17;;
3487;SDS011;38546;48.170;11.724;2023-04-03T16:48:39;2.60;;;2.37;;
3487;SDS011;38546;48.170;11.724;2023-04-03T16:51:28;2.73;;;2.50;;
3487;SDS011;38546;48.170;11.724;2023-04-03T16:54:17;3.67;;;2.40;;
3487;SDS011;38546;48.170;11.724;2023-04-03T16:57:07;2.43;;;2.23;;
3487;SDS011;38546;48.170;11.724;2023-04-03T16:59:57;2.70;;;2.30;;
3487;SDS011;38546;48.170;11.724;2023-04-03T17:02:46;2.80;;;2.43;;
3487;SDS011;38546;48.170;11.724;2023-04-03T17:05:36;2.87;;;2.67;;
3487;SDS011;38546;48.170;11.724;2023-04-03T17:08:25;2.77;;;2.57;;
3487;SDS011;38546;48.170;11.724;2023-04-03T17:11:14;2.20;;;2.10;;
3487;SDS011;38546;48.170;11.724;2023-04-03T17:14:04;2.90;;;2.37;;
3487;SDS011;38546;48.170;11.724;2023-04-03T17:16:54;8.83;;;2.67;;
3487;SDS011;38546;48.170;11.724;2023-04-03T17:19:44;2.40;;;2.30;;
3487;SDS011;38546;48.170;11.724;2023-04-03T17:22:33;3.20;;;2.60;;
3487;SDS011;38546;48.170;11.724;2023-04-03T17:25:23;2.60;;;2.30;;
3487;SDS011;38546;48.170;11.724;2023-04-03T17:28:12;2.17;;;2.07;;
3487;SDS011;38546;48.170;11.724;2023-04-03T17:31:01;3.10;;;2.60;;
3487;SDS011;38546;48.170;11.724;2023-04-03T17:33:51;6.07;;;2.60;;
3487;SDS011;38546;48.170;11.724;2023-04-03T17:36:41;2.60;;;2.13;;
3487;SDS011;38546;48.170;11.724;2023-04-03T17:39:31;2.47;;;2.27;;
3487;SDS011;38546;48.170;11.724;2023-04-03T17:42:20;4.80;;;2.43;;
3487;SDS011;38546;48.170;11.724;2023-04-03T17:45:10;2.37;;;2.17;;
3487;SDS011;38546;48.170;11.724;2023-04-03T17:48:00;4.57;;;2.40;;
3487;SDS011;38546;48.170;11.724;2023-04-03T17:50:49;3.90;;;2.93;;
3487;SDS011;38546;48.170;11.724;2023-04-03T17:53:39;2.90;;;2.37;;
3487;SDS011;38546;48.170;11.724;2023-04-03T17:56:29;2.63;;;2.50;;
3487;SDS011;38546;48.170;11.724;2023-04-03T17:59:19;7.23;;;2.40;;
3487;SDS011;38546;48.170;11.724;2023-04-03T18:02:08;3.40;;;2.70;;
3487;SDS011;38546;48.170;11.724;2023-04-03T18:04:58;3.00;;;2.73;;
3487;SDS011;38546;48.170;11.724;2023-04-03T18:07:47;3.03;;;2.83;;